LTU120 EDDP-EDDN
Flight info
| Callsign | LTU120 |
|---|---|
| Flight time | 0h 40m |
| Altitude | 20000 |
| Route | GOLAT1K GOLAT T202 TABAT Q244 PIVIR PIVIR1V |
| Aircraft | L101/H-SDFGHIRWXY/S |
Departure
| Time | 2026-05-06 18:01 |
|---|---|
| Airport | Leipzig/Halle Airport (EDDP) |
Arrival
| Time | 2026-05-06 18:41 |
|---|---|
| Airport | Nuremberg Airport (EDDN) |
| Time | Latitude | Longitude | Altitude | Speed | Heading |
|---|---|---|---|---|---|
| 2026-05-06 17:36 | 51.41839 | 12.22428 | 459 ft | 0 kts | 15° |
| 2026-05-06 17:50 | 51.41862 | 12.22439 | 457 ft | 10 kts | 18° |
| 2026-05-06 17:50 | 51.41898 | 12.22540 | 458 ft | 13 kts | 102° |
| 2026-05-06 17:50 | 51.41851 | 12.22661 | 461 ft | 13 kts | 156° |
| 2026-05-06 17:50 | 51.41763 | 12.22647 | 465 ft | 14 kts | 197° |
| 2026-05-06 17:51 | 51.41723 | 12.22510 | 462 ft | 18 kts | 287° |
| 2026-05-06 17:51 | 51.41765 | 12.22277 | 457 ft | 25 kts | 283° |
| 2026-05-06 17:51 | 51.41818 | 12.21970 | 450 ft | 32 kts | 285° |
| 2026-05-06 17:51 | 51.41883 | 12.21604 | 432 ft | 36 kts | 286° |
| 2026-05-06 17:52 | 51.41952 | 12.21198 | 428 ft | 39 kts | 287° |
| 2026-05-06 17:52 | 51.42036 | 12.20933 | 418 ft | 17 kts | 352° |
| 2026-05-06 17:52 | 51.42153 | 12.20969 | 427 ft | 18 kts | 15° |
| 2026-05-06 17:52 | 51.42268 | 12.21021 | 435 ft | 17 kts | 16° |
| 2026-05-06 17:53 | 51.42380 | 12.21070 | 433 ft | 16 kts | 15° |
| 2026-05-06 17:53 | 51.42489 | 12.21116 | 447 ft | 18 kts | 14° |
| 2026-05-06 17:53 | 51.42622 | 12.21172 | 433 ft | 22 kts | 14° |
| 2026-05-06 17:53 | 51.42790 | 12.21243 | 434 ft | 27 kts | 14° |
| 2026-05-06 17:54 | 51.42919 | 12.21330 | 427 ft | 13 kts | 43° |
| 2026-05-06 17:54 | 51.42940 | 12.21364 | 424 ft | 4 kts | 46° |
| 2026-05-06 17:54 | 51.42945 | 12.21372 | 424 ft | 0 kts | 46° |
| 2026-05-06 17:57 | 51.42950 | 12.21380 | 431 ft | 3 kts | 46° |
| 2026-05-06 17:57 | 51.42975 | 12.21420 | 432 ft | 7 kts | 45° |
| 2026-05-06 17:57 | 51.43017 | 12.21489 | 427 ft | 11 kts | 45° |
| 2026-05-06 17:58 | 51.43081 | 12.21593 | 425 ft | 15 kts | 45° |
| 2026-05-06 17:58 | 51.43131 | 12.21739 | 436 ft | 15 kts | 85° |
| 2026-05-06 17:58 | 51.43132 | 12.21757 | 432 ft | 0 kts | 86° |
| 2026-05-06 18:00 | 51.43132 | 12.21759 | 444 ft | 4 kts | 86° |
| 2026-05-06 18:01 | 51.43162 | 12.22335 | 427 ft | 103 kts | 85° |
| 2026-05-06 18:01 | 51.43240 | 12.23927 | 702 ft | 166 kts | 84° |
| 2026-05-06 18:01 | 51.43322 | 12.25791 | 1962 ft | 167 kts | 84° |
| 2026-05-06 18:01 | 51.43442 | 12.27599 | 2899 ft | 168 kts | 84° |
| 2026-05-06 18:02 | 51.43596 | 12.29590 | 2974 ft | 196 kts | 83° |
| 2026-05-06 18:02 | 51.43708 | 12.31987 | 3101 ft | 233 kts | 89° |
| 2026-05-06 18:02 | 51.43718 | 12.34681 | 2977 ft | 247 kts | 90° |
| 2026-05-06 18:02 | 51.43805 | 12.37410 | 2805 ft | 243 kts | 86° |
| 2026-05-06 18:03 | 51.43966 | 12.40041 | 2933 ft | 230 kts | 85° |
| 2026-05-06 18:03 | 51.44110 | 12.42634 | 3412 ft | 238 kts | 86° |
| 2026-05-06 18:03 | 51.44222 | 12.45339 | 3940 ft | 247 kts | 88° |
| 2026-05-06 18:03 | 51.44334 | 12.48124 | 4478 ft | 252 kts | 88° |
| 2026-05-06 18:04 | 51.44135 | 12.50850 | 5444 ft | 242 kts | 112° |
| 2026-05-06 18:04 | 51.43274 | 12.53102 | 6329 ft | 238 kts | 137° |
| 2026-05-06 18:04 | 51.41882 | 12.54592 | 6792 ft | 248 kts | 163° |
| 2026-05-06 18:04 | 51.40250 | 12.54997 | 7171 ft | 226 kts | 188° |
| 2026-05-06 18:05 | 51.38702 | 12.54243 | 7432 ft | 241 kts | 209° |
| 2026-05-06 18:05 | 51.37231 | 12.52733 | 8104 ft | 260 kts | 217° |
| 2026-05-06 18:05 | 51.35795 | 12.50922 | 8886 ft | 266 kts | 220° |
| 2026-05-06 18:05 | 51.34374 | 12.49005 | 9676 ft | 269 kts | 221° |
| 2026-05-06 18:06 | 51.32961 | 12.47078 | 10385 ft | 273 kts | 221° |
| 2026-05-06 18:06 | 51.31426 | 12.45013 | 11165 ft | 306 kts | 220° |
| 2026-05-06 18:06 | 51.29670 | 12.42698 | 11781 ft | 345 kts | 219° |
| 2026-05-06 18:06 | 51.27758 | 12.40231 | 12408 ft | 360 kts | 219° |
| 2026-05-06 18:07 | 51.25781 | 12.37732 | 13061 ft | 366 kts | 218° |
| 2026-05-06 18:07 | 51.23762 | 12.35220 | 13710 ft | 370 kts | 218° |
| 2026-05-06 18:07 | 51.21710 | 12.32693 | 14306 ft | 374 kts | 218° |
| 2026-05-06 18:07 | 51.19641 | 12.30159 | 14921 ft | 377 kts | 218° |
| 2026-05-06 18:08 | 51.18230 | 12.28435 | 15338 ft | 379 kts | 218° |
| 2026-05-06 18:08 | 51.16128 | 12.25869 | 15993 ft | 381 kts | 218° |
| 2026-05-06 18:08 | 51.14010 | 12.23283 | 16781 ft | 387 kts | 217° |
| 2026-05-06 18:08 | 51.11863 | 12.20661 | 17585 ft | 392 kts | 217° |
| 2026-05-06 18:09 | 51.09687 | 12.18003 | 18366 ft | 397 kts | 217° |
| 2026-05-06 18:09 | 51.07470 | 12.15294 | 18689 ft | 405 kts | 217° |
| 2026-05-06 18:09 | 51.05235 | 12.12565 | 18726 ft | 405 kts | 217° |
| 2026-05-06 18:09 | 51.03000 | 12.09837 | 18773 ft | 404 kts | 217° |
| 2026-05-06 18:10 | 51.00807 | 12.07163 | 19072 ft | 403 kts | 217° |
| 2026-05-06 18:10 | 50.98578 | 12.04449 | 19439 ft | 405 kts | 217° |
| 2026-05-06 18:10 | 50.96329 | 12.01713 | 19627 ft | 408 kts | 217° |
| 2026-05-06 18:10 | 50.94076 | 11.98977 | 19707 ft | 409 kts | 218° |
| 2026-05-06 18:11 | 50.91810 | 11.96230 | 19736 ft | 410 kts | 218° |
| 2026-05-06 18:11 | 50.89540 | 11.93481 | 19745 ft | 410 kts | 217° |
| 2026-05-06 18:11 | 50.87273 | 11.90739 | 19759 ft | 411 kts | 217° |
| 2026-05-06 18:11 | 50.85003 | 11.87997 | 19759 ft | 410 kts | 217° |
| 2026-05-06 18:12 | 50.82731 | 11.85256 | 19759 ft | 410 kts | 217° |
| 2026-05-06 18:12 | 50.80463 | 11.82525 | 19758 ft | 411 kts | 217° |
| 2026-05-06 18:12 | 50.78191 | 11.79792 | 19760 ft | 411 kts | 217° |
| 2026-05-06 18:12 | 50.75915 | 11.77057 | 19773 ft | 411 kts | 217° |
| 2026-05-06 18:13 | 50.73639 | 11.74325 | 19762 ft | 411 kts | 217° |
| 2026-05-06 18:13 | 50.71370 | 11.71605 | 19763 ft | 410 kts | 217° |
| 2026-05-06 18:13 | 50.69094 | 11.68880 | 19762 ft | 410 kts | 217° |
| 2026-05-06 18:13 | 50.66822 | 11.66163 | 19764 ft | 410 kts | 217° |
| 2026-05-06 18:14 | 50.64547 | 11.63445 | 19763 ft | 410 kts | 217° |
| 2026-05-06 18:14 | 50.62274 | 11.60732 | 19767 ft | 410 kts | 217° |
| 2026-05-06 18:14 | 50.60004 | 11.58028 | 19764 ft | 410 kts | 217° |
| 2026-05-06 18:14 | 50.57685 | 11.55415 | 19754 ft | 410 kts | 211° |
| 2026-05-06 18:15 | 50.55075 | 11.53601 | 19741 ft | 411 kts | 197° |
| 2026-05-06 18:15 | 50.52258 | 11.52842 | 19757 ft | 412 kts | 185° |
| 2026-05-06 18:15 | 50.49383 | 11.52944 | 19778 ft | 415 kts | 176° |
| 2026-05-06 18:15 | 50.46518 | 11.53612 | 19769 ft | 416 kts | 171° |
| 2026-05-06 18:16 | 50.43687 | 11.54561 | 19771 ft | 417 kts | 169° |
| 2026-05-06 18:16 | 50.40846 | 11.55479 | 19755 ft | 416 kts | 174° |
| 2026-05-06 18:16 | 50.37968 | 11.55667 | 19751 ft | 413 kts | 185° |
| 2026-05-06 18:16 | 50.35129 | 11.55071 | 19770 ft | 412 kts | 192° |
| 2026-05-06 18:17 | 50.32332 | 11.54066 | 19774 ft | 412 kts | 195° |
| 2026-05-06 18:17 | 50.29546 | 11.53028 | 19767 ft | 412 kts | 193° |
| 2026-05-06 18:17 | 50.26723 | 11.52196 | 19586 ft | 413 kts | 190° |
| 2026-05-06 18:17 | 50.23941 | 11.51644 | 19082 ft | 391 kts | 187° |
| 2026-05-06 18:18 | 50.21295 | 11.51300 | 18599 ft | 371 kts | 186° |
| 2026-05-06 18:18 | 50.18782 | 11.51014 | 18127 ft | 354 kts | 186° |
| 2026-05-06 18:18 | 50.16357 | 11.50682 | 17616 ft | 354 kts | 187° |
| 2026-05-06 18:18 | 50.13842 | 11.50248 | 17294 ft | 368 kts | 188° |
| 2026-05-06 18:19 | 50.11280 | 11.49752 | 17036 ft | 374 kts | 189° |
| 2026-05-06 18:19 | 50.08699 | 11.49237 | 16647 ft | 373 kts | 188° |
| 2026-05-06 18:19 | 50.06128 | 11.48753 | 16245 ft | 371 kts | 188° |
| 2026-05-06 18:19 | 50.03559 | 11.48392 | 15819 ft | 370 kts | 185° |
| 2026-05-06 18:20 | 50.00990 | 11.48302 | 15311 ft | 368 kts | 182° |
| 2026-05-06 18:20 | 49.98444 | 11.48373 | 14812 ft | 365 kts | 180° |
| 2026-05-06 18:20 | 49.95913 | 11.48520 | 14323 ft | 362 kts | 180° |
| 2026-05-06 18:20 | 49.93438 | 11.48699 | 13848 ft | 359 kts | 179° |
| 2026-05-06 18:21 | 49.90921 | 11.48897 | 13349 ft | 356 kts | 179° |
| 2026-05-06 18:21 | 49.88454 | 11.49101 | 12815 ft | 353 kts | 179° |
| 2026-05-06 18:21 | 49.86039 | 11.49302 | 12289 ft | 350 kts | 179° |
| 2026-05-06 18:21 | 49.83583 | 11.49403 | 11732 ft | 347 kts | 182° |
| 2026-05-06 18:22 | 49.81212 | 11.49367 | 11184 ft | 344 kts | 183° |
| 2026-05-06 18:22 | 49.78834 | 11.49266 | 10634 ft | 341 kts | 184° |
| 2026-05-06 18:22 | 49.76473 | 11.49134 | 10105 ft | 338 kts | 184° |
| 2026-05-06 18:22 | 49.74127 | 11.48989 | 9536 ft | 336 kts | 184° |
| 2026-05-06 18:23 | 49.71803 | 11.48836 | 8867 ft | 333 kts | 184° |
| 2026-05-06 18:23 | 49.69493 | 11.48676 | 8227 ft | 331 kts | 184° |
| 2026-05-06 18:23 | 49.67215 | 11.48509 | 7902 ft | 326 kts | 184° |
| 2026-05-06 18:23 | 49.64950 | 11.48338 | 7844 ft | 326 kts | 184° |
| 2026-05-06 18:24 | 49.62678 | 11.48163 | 7707 ft | 327 kts | 184° |
| 2026-05-06 18:24 | 49.60454 | 11.47988 | 7208 ft | 312 kts | 184° |
| 2026-05-06 18:24 | 49.58346 | 11.47821 | 6831 ft | 294 kts | 184° |
| 2026-05-06 18:24 | 49.56355 | 11.47664 | 6483 ft | 280 kts | 184° |
| 2026-05-06 18:25 | 49.54450 | 11.47515 | 6116 ft | 268 kts | 184° |
| 2026-05-06 18:25 | 49.52605 | 11.47368 | 5658 ft | 263 kts | 184° |
| 2026-05-06 18:25 | 49.50789 | 11.47228 | 5144 ft | 260 kts | 184° |
| 2026-05-06 18:25 | 49.48993 | 11.47067 | 4639 ft | 256 kts | 191° |
| 2026-05-06 18:26 | 49.47357 | 11.46092 | 4154 ft | 250 kts | 215° |
| 2026-05-06 18:26 | 49.46118 | 11.44373 | 3994 ft | 232 kts | 236° |
| 2026-05-06 18:26 | 49.45545 | 11.42226 | 3960 ft | 211 kts | 265° |
| 2026-05-06 18:26 | 49.45646 | 11.40075 | 4000 ft | 200 kts | 287° |
| 2026-05-06 18:27 | 49.46250 | 11.38100 | 4075 ft | 204 kts | 300° |
| 2026-05-06 18:27 | 49.47056 | 11.36276 | 4124 ft | 207 kts | 305° |
| 2026-05-06 18:27 | 49.47889 | 11.34510 | 4151 ft | 208 kts | 300° |
| 2026-05-06 18:27 | 49.48524 | 11.32535 | 4182 ft | 206 kts | 294° |
| 2026-05-06 18:28 | 49.49029 | 11.30467 | 4130 ft | 209 kts | 284° |
| 2026-05-06 18:28 | 49.49220 | 11.28279 | 4080 ft | 203 kts | 270° |
| 2026-05-06 18:28 | 49.49079 | 11.26122 | 4193 ft | 204 kts | 257° |
| 2026-05-06 18:28 | 49.48527 | 11.24067 | 3938 ft | 215 kts | 234° |
| 2026-05-06 18:29 | 49.47503 | 11.22402 | 3680 ft | 206 kts | 236° |
| 2026-05-06 18:29 | 49.46910 | 11.20510 | 3718 ft | 195 kts | 258° |
| 2026-05-06 18:29 | 49.46834 | 11.18423 | 3780 ft | 198 kts | 275° |
| 2026-05-06 18:29 | 49.47057 | 11.16318 | 3849 ft | 201 kts | 282° |
| 2026-05-06 18:30 | 49.47382 | 11.14220 | 3869 ft | 202 kts | 284° |
| 2026-05-06 18:30 | 49.47840 | 11.12185 | 3838 ft | 204 kts | 303° |
| 2026-05-06 18:30 | 49.48918 | 11.10828 | 3680 ft | 205 kts | 339° |
| 2026-05-06 18:30 | 49.50318 | 11.10782 | 3712 ft | 207 kts | 17° |
| 2026-05-06 18:31 | 49.51484 | 11.12099 | 3862 ft | 217 kts | 53° |
| 2026-05-06 18:31 | 49.52129 | 11.14230 | 4044 ft | 224 kts | 70° |
| 2026-05-06 18:31 | 49.52588 | 11.16551 | 4091 ft | 229 kts | 73° |
| 2026-05-06 18:31 | 49.53009 | 11.18914 | 4036 ft | 228 kts | 74° |
| 2026-05-06 18:32 | 49.53416 | 11.21260 | 4011 ft | 227 kts | 74° |
| 2026-05-06 18:32 | 49.53818 | 11.23616 | 4012 ft | 227 kts | 74° |
| 2026-05-06 18:32 | 49.54217 | 11.25962 | 3986 ft | 227 kts | 74° |
| 2026-05-06 18:32 | 49.54617 | 11.28318 | 3998 ft | 226 kts | 74° |
| 2026-05-06 18:33 | 49.55016 | 11.30643 | 3963 ft | 223 kts | 74° |
| 2026-05-06 18:33 | 49.55411 | 11.32914 | 3973 ft | 223 kts | 74° |
| 2026-05-06 18:33 | 49.55802 | 11.35224 | 3982 ft | 223 kts | 80° |
| 2026-05-06 18:33 | 49.55821 | 11.37636 | 3942 ft | 222 kts | 97° |
| 2026-05-06 18:34 | 49.55547 | 11.39951 | 3979 ft | 224 kts | 102° |
| 2026-05-06 18:34 | 49.55196 | 11.42291 | 3971 ft | 224 kts | 104° |
| 2026-05-06 18:34 | 49.54827 | 11.44617 | 3977 ft | 224 kts | 104° |
| 2026-05-06 18:34 | 49.54451 | 11.46944 | 3973 ft | 224 kts | 104° |
| 2026-05-06 18:35 | 49.54072 | 11.49274 | 3976 ft | 224 kts | 104° |
| 2026-05-06 18:35 | 49.53423 | 11.51409 | 3909 ft | 221 kts | 135° |
| 2026-05-06 18:35 | 49.52159 | 11.52593 | 3903 ft | 212 kts | 171° |
| 2026-05-06 18:35 | 49.50733 | 11.52411 | 3932 ft | 207 kts | 208° |
| 2026-05-06 18:36 | 49.49677 | 11.50992 | 3980 ft | 203 kts | 239° |
| 2026-05-06 18:36 | 49.49066 | 11.49028 | 4077 ft | 206 kts | 250° |
| 2026-05-06 18:36 | 49.48585 | 11.46936 | 4039 ft | 208 kts | 251° |
| 2026-05-06 18:36 | 49.48071 | 11.44865 | 4010 ft | 206 kts | 249° |
| 2026-05-06 18:37 | 49.47543 | 11.42826 | 3996 ft | 206 kts | 251° |
| 2026-05-06 18:37 | 49.47226 | 11.41455 | 3991 ft | 205 kts | 255° |
| 2026-05-06 18:37 | 49.47244 | 11.38591 | 3934 ft | 201 kts | 287° |
| 2026-05-06 18:37 | 49.47678 | 11.36542 | 4007 ft | 205 kts | 280° |
| 2026-05-06 18:38 | 49.47700 | 11.34361 | 3983 ft | 204 kts | 263° |
| 2026-05-06 18:38 | 49.47371 | 11.32229 | 3919 ft | 208 kts | 255° |
| 2026-05-06 18:38 | 49.47157 | 11.30044 | 3662 ft | 208 kts | 275° |
| 2026-05-06 18:38 | 49.47558 | 11.27935 | 3438 ft | 204 kts | 293° |
| 2026-05-06 18:39 | 49.48113 | 11.25945 | 3189 ft | 201 kts | 291° |
| 2026-05-06 18:39 | 49.48538 | 11.23921 | 2974 ft | 197 kts | 282° |
| 2026-05-06 18:39 | 49.48688 | 11.21915 | 2687 ft | 185 kts | 273° |
| 2026-05-06 18:40 | 49.48819 | 11.18237 | 2247 ft | 167 kts | 277° |
| 2026-05-06 18:40 | 49.48992 | 11.16495 | 1985 ft | 162 kts | 279° |
| 2026-05-06 18:40 | 49.49166 | 11.14787 | 1763 ft | 159 kts | 279° |
| 2026-05-06 18:40 | 49.49333 | 11.13169 | 1580 ft | 148 kts | 278° |
| 2026-05-06 18:41 | 49.49494 | 11.11645 | 1365 ft | 143 kts | 277° |
| 2026-05-06 18:41 | 49.49655 | 11.10081 | 1182 ft | 151 kts | 276° |
| 2026-05-06 18:41 | 49.49806 | 11.08488 | 1034 ft | 148 kts | 277° |
| 2026-05-06 18:41 | 49.49911 | 11.07393 | 1035 ft | 46 kts | 278° |
| 2026-05-06 18:42 | 49.49935 | 11.07073 | 1024 ft | 17 kts | 252° |
| 2026-05-06 18:42 | 49.49838 | 11.07039 | 1021 ft | 17 kts | 159° |
| 2026-05-06 18:42 | 49.49816 | 11.07052 | 1021 ft | 0 kts | 159° |
| 2026-05-06 18:43 | 49.49813 | 11.07054 | 1022 ft | 2 kts | 159° |
| 2026-05-06 18:44 | 49.49783 | 11.07073 | 1026 ft | 6 kts | 150° |
| 2026-05-06 18:44 | 49.49751 | 11.07132 | 1026 ft | 9 kts | 116° |
| 2026-05-06 18:44 | 49.49739 | 11.07179 | 1026 ft | 1 kts | 109° |
| 2026-05-06 18:44 | 49.49730 | 11.07206 | 1029 ft | 5 kts | 123° |
| 2026-05-06 18:45 | 49.49684 | 11.07229 | 1028 ft | 9 kts | 181° |
| 2026-05-06 18:45 | 49.49670 | 11.07201 | 1027 ft | 6 kts | 261° |
| 2026-05-06 18:45 | 49.49671 | 11.07102 | 1030 ft | 1 kts | 250° |
| 2026-05-06 18:45 | 49.49668 | 11.07100 | 1030 ft | 0 kts | 221° |
| 2026-05-06 18:46 | 49.49638 | 11.07088 | 1030 ft | 7 kts | 190° |
| 2026-05-06 18:46 | 49.49631 | 11.07086 | 1030 ft | 0 kts | 190° |